createdAt,value
2023-04-18T00:00:20.072Z,100076.63
2023-04-18T00:03:16.083Z,100077.43
2023-04-18T00:05:49.902Z,100080.36
2023-04-18T00:08:21.917Z,100079.61
2023-04-18T00:10:54.275Z,100077.66
2023-04-18T00:13:28.569Z,100076.60
2023-04-18T00:16:00.651Z,100077.59
2023-04-18T00:18:32.590Z,100077.56
2023-04-18T00:21:05.011Z,100076.89
2023-04-18T00:23:37.331Z,100076.08
2023-04-18T00:26:09.379Z,100077.19
2023-04-18T00:28:41.886Z,100071.70
2023-04-18T00:31:15.785Z,100075.52
2023-04-18T00:33:47.755Z,100078.61
2023-04-18T00:36:20.868Z,100075.02
2023-04-18T00:38:52.785Z,100075.24
2023-04-18T00:41:27.650Z,100077.08
2023-04-18T00:43:59.668Z,100077.35
2023-04-18T00:46:31.681Z,100072.70
2023-04-18T00:49:03.692Z,100073.55
2023-04-18T00:51:37.105Z,100068.89
2023-04-18T00:54:13.693Z,100066.81
2023-04-18T00:56:47.021Z,100066.08
2023-04-18T00:59:21.828Z,100065.65
2023-04-18T01:01:53.892Z,100067.85
2023-04-18T01:04:26.524Z,100063.73
2023-04-18T01:06:58.785Z,100066.19
2023-04-18T01:09:31.310Z,100066.64
2023-04-18T01:12:04.154Z,100064.76
2023-04-18T01:14:36.244Z,100062.56
2023-04-18T01:17:11.102Z,100063.50
2023-04-18T01:19:43.174Z,100064.86
2023-04-18T01:22:16.636Z,100066.45
2023-04-18T01:24:48.614Z,100065.84
2023-04-18T01:27:21.945Z,100071.36
2023-04-18T01:29:53.893Z,100066.38
2023-04-18T01:32:25.940Z,100065.68
2023-04-18T01:34:58.003Z,100064.00
2023-04-18T01:37:29.990Z,100062.23
2023-04-18T01:40:02.316Z,100062.16
2023-04-18T01:42:34.459Z,100064.48
2023-04-18T01:45:08.777Z,100066.49
2023-04-18T01:47:40.784Z,100064.34
2023-04-18T01:50:15.970Z,100061.52
2023-04-18T01:52:48.079Z,100060.35
2023-04-18T01:55:21.605Z,100063.28
2023-04-18T01:57:53.637Z,100058.70
2023-04-18T02:00:26.133Z,100057.02
2023-04-18T02:02:59.282Z,100053.04
2023-04-18T02:05:31.570Z,100053.52
2023-04-18T02:08:04.941Z,100053.57
2023-04-18T02:10:37.237Z,100051.63
2023-04-18T02:13:09.522Z,100052.16
2023-04-18T02:15:41.570Z,100052.38
2023-04-18T02:18:13.598Z,100050.83
2023-04-18T02:20:45.739Z,100054.27
2023-04-18T02:23:17.796Z,100052.23
2023-04-18T02:25:50.888Z,100047.52
2023-04-18T02:28:22.806Z,100044.95
2023-04-18T02:30:54.741Z,100043.88
2023-04-18T02:33:26.796Z,100044.08
2023-04-18T02:35:58.774Z,100044.45
2023-04-18T02:38:31.897Z,100043.77
2023-04-18T02:41:04.231Z,100050.92
2023-04-18T02:43:36.262Z,100047.79
2023-04-18T02:46:08.695Z,100052.54
2023-04-18T02:48:40.939Z,100052.98
2023-04-18T02:51:13.434Z,100054.93
2023-04-18T02:53:45.438Z,100058.52
2023-04-18T02:56:19.378Z,100061.67
2023-04-18T02:59:10.038Z,100067.45
2023-04-18T03:02:12.497Z,100065.11
2023-04-18T03:04:49.360Z,100066.30
2023-04-18T03:07:21.426Z,100067.33
2023-04-18T03:09:54.198Z,100067.18
2023-04-18T03:12:32.182Z,100065.09
2023-04-18T03:15:05.096Z,100062.02
2023-04-18T03:17:37.354Z,100059.42
2023-04-18T03:20:12.310Z,100059.73
2023-04-18T03:22:44.356Z,100058.66
2023-04-18T03:25:16.754Z,100059.80
2023-04-18T03:27:52.122Z,100062.41
2023-04-18T03:30:25.583Z,100061.48
2023-04-18T03:33:02.998Z,100066.20
2023-04-18T03:35:34.097Z,100069.71
2023-04-18T03:38:06.068Z,100074.84
2023-04-18T03:40:42.351Z,100070.71
2023-04-18T03:43:20.020Z,100071.68
2023-04-18T03:45:52.400Z,100079.81
2023-04-18T03:48:24.871Z,100087.38
2023-04-18T03:50:57.316Z,100090.48
2023-04-18T03:53:29.357Z,100088.67
2023-04-18T03:56:01.335Z,100085.95
2023-04-18T03:58:46.254Z,100088.79
2023-04-18T04:01:18.612Z,100089.73
2023-04-18T04:03:50.721Z,100089.95
2023-04-18T04:06:23.102Z,100094.34
2023-04-18T04:08:55.106Z,100092.86
2023-04-18T04:11:30.004Z,100095.38
2023-04-18T04:14:02.262Z,100100.94
2023-04-18T04:16:39.203Z,100101.10
2023-04-18T04:19:11.674Z,100104.00
2023-04-18T04:21:48.708Z,100103.81
2023-04-18T04:24:22.767Z,100108.45
2023-04-18T04:26:56.466Z,100112.95
2023-04-18T04:29:29.108Z,100119.16
2023-04-18T04:32:05.869Z,100120.37
2023-04-18T04:34:42.034Z,100118.67
2023-04-18T04:37:18.760Z,100120.98
2023-04-18T04:40:01.001Z,100123.73
2023-04-18T04:43:05.636Z,100126.44
2023-04-18T04:45:42.018Z,100128.38
2023-04-18T04:48:14.101Z,100126.52
2023-04-18T04:50:54.673Z,100127.75
2023-04-18T04:53:28.038Z,100130.17
2023-04-18T04:56:00.471Z,100129.91
2023-04-18T04:58:32.671Z,100124.61
2023-04-18T05:01:18.707Z,100127.58
2023-04-18T05:03:51.681Z,100130.17
2023-04-18T05:06:23.983Z,100141.14
2023-04-18T05:08:57.565Z,100140.13
2023-04-18T05:11:30.053Z,100135.98
2023-04-18T05:14:02.121Z,100140.96
2023-04-18T05:16:34.391Z,100144.12
2023-04-18T05:19:06.435Z,100147.14
2023-04-18T05:21:38.964Z,100151.17
2023-04-18T05:24:11.815Z,100150.48
2023-04-18T05:26:44.331Z,100151.89
2023-04-18T05:29:16.312Z,100152.65
2023-04-18T05:31:48.342Z,100153.58
2023-04-18T05:34:20.547Z,100155.04
2023-04-18T05:36:52.862Z,100160.91
2023-04-18T05:39:24.873Z,100164.60
2023-04-18T05:41:57.028Z,100161.91
2023-04-18T05:44:29.470Z,100163.05
2023-04-18T05:47:01.954Z,100161.59
2023-04-18T05:49:34.143Z,100162.18
2023-04-18T05:52:06.624Z,100166.32
2023-04-18T05:54:38.616Z,100164.27
2023-04-18T05:57:10.716Z,100164.58
2023-04-18T05:59:42.727Z,100166.73
2023-04-18T06:02:14.788Z,100164.17
2023-04-18T06:04:47.263Z,100168.23
2023-04-18T06:07:19.612Z,100172.40
2023-04-18T06:09:51.706Z,100174.75
2023-04-18T06:12:23.734Z,100177.77
2023-04-18T06:14:56.026Z,100179.46
2023-04-18T06:17:28.157Z,100177.17
2023-04-18T06:20:00.309Z,100177.36
2023-04-18T06:22:32.349Z,100175.78
2023-04-18T06:25:06.212Z,100177.24
2023-04-18T06:27:40.802Z,100177.15
2023-04-18T06:30:13.710Z,100184.98
2023-04-18T06:32:45.704Z,100190.45
2023-04-18T06:35:18.017Z,100192.23
2023-04-18T06:37:50.042Z,100199.02
2023-04-18T06:40:22.372Z,100198.54
2023-04-18T06:42:54.423Z,100201.77
2023-04-18T06:45:26.470Z,100204.73
2023-04-18T06:47:59.841Z,100206.20
2023-04-18T06:50:32.560Z,100207.13
2023-04-18T06:53:04.627Z,100213.70
2023-04-18T06:55:37.140Z,100215.89
2023-04-18T06:58:10.308Z,100221.50
2023-04-18T07:00:42.346Z,100220.56
2023-04-18T07:03:14.527Z,100220.27
2023-04-18T07:05:47.055Z,100223.26
2023-04-18T07:08:19.062Z,100223.12
2023-04-18T07:10:51.322Z,100219.83
2023-04-18T07:13:23.501Z,100225.42
2023-04-18T07:15:55.934Z,100224.02
2023-04-18T07:18:37.256Z,100225.04
2023-04-18T07:21:08.474Z,100225.76
2023-04-18T07:23:40.577Z,100224.64
2023-04-18T07:26:13.826Z,100226.02
2023-04-18T07:28:45.833Z,100223.01
2023-04-18T07:31:19.668Z,100223.23
2023-04-18T07:33:51.701Z,100228.70
2023-04-18T07:36:23.865Z,100228.88
2023-04-18T07:38:55.918Z,100229.67
2023-04-18T07:41:27.986Z,100235.83
2023-04-18T07:44:01.206Z,100232.61
2023-04-18T07:46:34.083Z,100232.16
2023-04-18T07:49:06.441Z,100234.70
2023-04-18T07:51:38.553Z,100231.89
2023-04-18T07:54:11.377Z,100231.52
2023-04-18T07:56:43.454Z,100227.91
2023-04-18T07:59:15.870Z,100229.00
2023-04-18T08:01:48.343Z,100228.91
2023-04-18T08:04:20.749Z,100229.09
2023-04-18T08:06:53.317Z,100225.38
2023-04-18T08:09:26.283Z,100227.41
2023-04-18T08:11:59.287Z,100229.26
2023-04-18T08:14:31.290Z,100230.60
2023-04-18T08:17:03.629Z,100226.43
2023-04-18T08:19:35.619Z,100228.80
2023-04-18T08:22:13.826Z,100219.52
2023-04-18T08:25:01.059Z,100219.36
2023-04-18T08:27:36.442Z,100222.94
2023-04-18T08:30:10.717Z,100219.17
2023-04-18T08:32:42.817Z,100219.74
2023-04-18T08:35:14.884Z,100220.74
2023-04-18T08:37:46.961Z,100222.35
2023-04-18T08:40:19.726Z,100220.20
2023-04-18T08:42:53.861Z,100216.79
2023-04-18T08:45:26.405Z,100217.85
2023-04-18T08:48:01.599Z,100219.79
2023-04-18T08:50:33.698Z,100219.65
2023-04-18T08:53:05.979Z,100219.84
2023-04-18T08:55:38.777Z,100228.67
2023-04-18T08:58:12.732Z,100225.91
2023-04-18T09:00:50.519Z,100227.13
2023-04-18T09:03:39.810Z,100226.62
2023-04-18T09:06:16.427Z,100228.20
2023-04-18T09:09:00.323Z,100229.54
2023-04-18T09:11:34.612Z,100230.39
2023-04-18T09:14:06.742Z,100230.73
2023-04-18T09:16:48.322Z,100231.40
2023-04-18T09:19:21.796Z,100236.23
2023-04-18T09:22:01.414Z,100229.06
2023-04-18T09:24:34.483Z,100231.48
2023-04-18T09:27:15.242Z,100232.88
2023-04-18T09:29:49.491Z,100231.98
2023-04-18T09:32:27.195Z,100229.44
2023-04-18T09:35:04.077Z,100226.54
2023-04-18T09:37:36.895Z,100225.90
2023-04-18T09:40:19.514Z,100226.13
2023-04-18T09:42:54.590Z,100224.73
2023-04-18T09:45:27.650Z,100222.99
2023-04-18T09:47:59.988Z,100220.05
2023-04-18T09:50:32.816Z,100226.83
2023-04-18T09:53:05.160Z,100228.02
2023-04-18T09:55:38.319Z,100230.27
2023-04-18T09:58:11.859Z,100229.67
2023-04-18T10:00:46.743Z,100229.56
2023-04-18T10:03:21.465Z,100226.48
2023-04-18T10:05:57.145Z,100221.67
2023-04-18T10:08:30.536Z,100218.36
2023-04-18T10:11:02.884Z,100216.48
2023-04-18T10:13:38.373Z,100219.92
2023-04-18T10:16:11.231Z,100215.35
2023-04-18T10:18:45.471Z,100220.28
2023-04-18T10:21:17.464Z,100221.23
2023-04-18T10:23:50.520Z,100218.94
2023-04-18T10:26:22.645Z,100219.70
2023-04-18T10:28:57.002Z,100216.38
2023-04-18T10:31:30.356Z,100203.09
2023-04-18T10:34:07.401Z,100209.15
2023-04-18T10:36:59.330Z,100206.34
2023-04-18T10:39:31.454Z,100209.20
2023-04-18T10:42:03.524Z,100210.12
2023-04-18T10:44:35.583Z,100210.30
2023-04-18T10:47:26.184Z,100212.23
2023-04-18T10:50:06.775Z,100210.91
2023-04-18T10:52:39.631Z,100210.46
2023-04-18T10:55:19.412Z,100203.56
2023-04-18T10:57:56.164Z,100203.08
2023-04-18T11:00:29.546Z,100200.58
2023-04-18T11:03:01.848Z,100199.80
2023-04-18T11:05:34.272Z,100195.62
2023-04-18T11:08:06.989Z,100195.21
2023-04-18T11:10:39.234Z,100194.27
2023-04-18T11:13:11.282Z,100190.23
2023-04-18T11:15:43.850Z,100190.80
2023-04-18T11:18:16.096Z,100189.50
2023-04-18T11:20:51.857Z,100189.02
2023-04-18T11:23:25.233Z,100186.17
2023-04-18T11:25:58.411Z,100192.23
2023-04-18T11:28:30.432Z,100188.39
2023-04-18T11:31:04.096Z,100191.17
2023-04-18T11:33:36.152Z,100186.53
2023-04-18T11:36:09.926Z,100178.89
2023-04-18T11:38:43.169Z,100176.02
2023-04-18T11:41:18.574Z,100176.30
2023-04-18T11:43:50.971Z,100166.02
2023-04-18T11:46:22.996Z,100163.73
2023-04-18T11:48:55.006Z,100166.63
2023-04-18T11:51:38.927Z,100165.96
2023-04-18T11:54:43.905Z,100162.54
2023-04-18T11:57:29.829Z,100164.62
2023-04-18T12:00:03.526Z,100166.48
2023-04-18T12:02:47.252Z,100161.56
2023-04-18T12:05:29.381Z,100162.84
2023-04-18T12:08:08.603Z,100160.55
2023-04-18T12:10:47.398Z,100157.81
2023-04-18T12:13:20.494Z,100158.49
2023-04-18T12:15:52.564Z,100153.65
2023-04-18T12:18:26.145Z,100153.41
2023-04-18T12:21:02.129Z,100154.55
2023-04-18T12:23:37.217Z,100154.50
2023-04-18T12:26:13.411Z,100152.05
2023-04-18T12:28:48.156Z,100151.30
2023-04-18T12:31:21.746Z,100155.33
2023-04-18T12:33:54.530Z,100155.79
2023-04-18T12:36:28.566Z,100154.03
2023-04-18T12:39:00.662Z,100146.52
2023-04-18T12:41:32.665Z,100142.01
2023-04-18T12:44:04.733Z,100136.52
2023-04-18T12:46:36.967Z,100132.04
2023-04-18T12:49:09.424Z,100136.43
2023-04-18T12:51:42.105Z,100133.85
2023-04-18T12:54:14.784Z,100133.71
2023-04-18T12:56:47.915Z,100134.48
2023-04-18T12:59:19.998Z,100132.40
2023-04-18T13:01:52.157Z,100129.46
2023-04-18T13:04:24.813Z,100129.16
2023-04-18T13:06:57.361Z,100122.48
2023-04-18T13:09:29.489Z,100121.48
2023-04-18T13:12:02.261Z,100116.81
2023-04-18T13:14:34.346Z,100113.75
2023-04-18T13:17:06.827Z,100114.29
2023-04-18T13:19:38.873Z,100114.83
2023-04-18T13:22:11.045Z,100118.54
2023-04-18T13:24:43.154Z,100115.25
2023-04-18T13:27:15.760Z,100114.35
2023-04-18T13:29:47.769Z,100122.70
2023-04-18T13:32:19.754Z,100120.80
2023-04-18T13:34:52.086Z,100119.05
2023-04-18T13:37:24.610Z,100120.54
2023-04-18T13:39:56.646Z,100119.46
2023-04-18T13:42:28.717Z,100118.67
2023-04-18T13:45:00.700Z,100118.32
2023-04-18T13:47:33.230Z,100111.42
2023-04-18T13:50:05.736Z,100115.22
2023-04-18T13:52:37.773Z,100114.77
2023-04-18T13:55:12.597Z,100116.80
2023-04-18T13:57:46.051Z,100120.08
2023-04-18T14:00:20.326Z,100118.17
2023-04-18T14:02:53.081Z,100116.14
2023-04-18T14:05:25.329Z,100114.27
2023-04-18T14:08:02.479Z,100114.71
2023-04-18T14:10:34.721Z,100108.62
2023-04-18T14:13:06.785Z,100108.29
2023-04-18T14:15:38.866Z,100119.00
2023-04-18T14:18:10.981Z,100117.62
2023-04-18T14:20:43.646Z,100115.29
2023-04-18T14:23:16.123Z,100114.59
2023-04-18T14:25:48.180Z,100113.22
2023-04-18T14:28:22.143Z,100115.23
2023-04-18T14:30:57.955Z,100112.73
2023-04-18T14:33:30.158Z,100116.11
2023-04-18T14:36:03.290Z,100120.75
2023-04-18T14:38:35.437Z,100119.89
2023-04-18T14:41:08.270Z,100124.11
2023-04-18T14:43:40.294Z,100126.94
2023-04-18T14:46:16.732Z,100127.45
2023-04-18T14:48:48.824Z,100125.13
2023-04-18T14:51:20.839Z,100126.77
2023-04-18T14:53:53.058Z,100128.48
2023-04-18T14:56:25.107Z,100129.16
2023-04-18T14:58:57.203Z,100134.80
2023-04-18T15:01:29.327Z,100128.06
2023-04-18T15:04:03.697Z,100133.44
2023-04-18T15:06:36.386Z,100132.38
2023-04-18T15:09:08.326Z,100131.27
2023-04-18T15:11:40.551Z,100130.58
2023-04-18T15:14:13.279Z,100128.77
2023-04-18T15:16:45.606Z,100129.05
2023-04-18T15:19:17.708Z,100129.69
2023-04-18T15:21:49.776Z,100135.68
2023-04-18T15:24:21.843Z,100136.40
2023-04-18T15:26:53.859Z,100131.59
2023-04-18T15:29:26.388Z,100133.43
2023-04-18T15:31:59.138Z,100129.91
2023-04-18T15:34:31.483Z,100130.84
2023-04-18T15:37:04.650Z,100129.50
2023-04-18T15:39:36.598Z,100133.67
2023-04-18T15:42:09.051Z,100135.61
2023-04-18T15:44:41.026Z,100140.30
2023-04-18T15:47:12.977Z,100140.89
2023-04-18T15:49:44.956Z,100139.02
2023-04-18T15:52:16.975Z,100142.36
2023-04-18T15:54:48.934Z,100142.91
2023-04-18T15:57:21.422Z,100146.59
2023-04-18T15:59:54.029Z,100150.78
2023-04-18T16:02:26.271Z,100151.86
2023-04-18T16:04:58.432Z,100148.59
2023-04-18T16:07:30.770Z,100150.88
2023-04-18T16:10:03.861Z,100150.21
2023-04-18T16:12:36.126Z,100150.60
2023-04-18T16:15:11.032Z,100150.79
2023-04-18T16:17:43.021Z,100150.46
2023-04-18T16:20:15.554Z,100152.19
2023-04-18T16:22:47.910Z,100149.05
2023-04-18T16:25:20.165Z,100151.98
2023-04-18T16:27:52.127Z,100148.16
2023-04-18T16:30:24.240Z,100158.05
2023-04-18T16:32:56.604Z,100165.52
2023-04-18T16:35:28.937Z,100164.98
2023-04-18T16:38:00.976Z,100163.20
2023-04-18T16:40:35.147Z,100167.69
2023-04-18T16:43:07.180Z,100166.38
2023-04-18T16:45:39.149Z,100174.30
2023-04-18T16:48:11.297Z,100176.98
2023-04-18T16:50:45.697Z,100176.56
2023-04-18T16:53:17.862Z,100178.02
2023-04-18T16:55:50.627Z,100178.64
2023-04-18T16:58:23.711Z,100181.17
2023-04-18T17:00:55.923Z,100184.23
2023-04-18T17:03:28.148Z,100181.71
2023-04-18T17:06:01.524Z,100186.48
2023-04-18T17:08:34.254Z,100188.27
2023-04-18T17:11:06.490Z,100186.27
2023-04-18T17:13:38.451Z,100189.66
2023-04-18T17:16:11.215Z,100194.26
2023-04-18T17:18:43.190Z,100196.29
2023-04-18T17:21:15.271Z,100198.83
2023-04-18T17:23:47.648Z,100200.48
2023-04-18T17:26:19.650Z,100202.46
2023-04-18T17:28:51.574Z,100204.48
2023-04-18T17:31:23.590Z,100207.03
2023-04-18T17:33:56.321Z,100209.05
2023-04-18T17:36:28.420Z,100208.31
2023-04-18T17:39:06.286Z,100207.19
2023-04-18T17:41:39.904Z,100210.94
2023-04-18T17:44:11.928Z,100215.05
2023-04-18T17:46:43.985Z,100216.36
2023-04-18T17:49:16.394Z,100215.27
2023-04-18T17:51:48.730Z,100215.05
2023-04-18T17:54:20.888Z,100216.70
2023-04-18T17:56:52.935Z,100223.23
2023-04-18T17:59:25.007Z,100222.33
2023-04-18T18:01:57.674Z,100226.27
2023-04-18T18:04:30.491Z,100225.72
2023-04-18T18:07:02.944Z,100224.26
2023-04-18T18:09:35.235Z,100227.77
2023-04-18T18:12:07.859Z,100229.08
2023-04-18T18:14:41.433Z,100231.15
2023-04-18T18:17:13.828Z,100229.94
2023-04-18T18:19:46.112Z,100225.09
2023-04-18T18:22:18.400Z,100227.98
2023-04-18T18:24:50.657Z,100231.73
2023-04-18T18:27:23.032Z,100235.65
2023-04-18T18:29:55.157Z,100236.80
2023-04-18T18:32:27.934Z,100236.39
2023-04-18T18:34:59.934Z,100235.11
2023-04-18T18:37:32.108Z,100237.81
2023-04-18T18:40:06.866Z,100242.07
2023-04-18T18:42:39.783Z,100244.97
2023-04-18T18:45:13.391Z,100244.02
2023-04-18T18:47:46.320Z,100244.46
2023-04-18T18:50:18.811Z,100245.79
2023-04-18T18:52:51.122Z,100240.05
2023-04-18T18:55:23.574Z,100240.33
2023-04-18T18:57:56.201Z,100239.20
2023-04-18T19:00:28.613Z,100239.54
2023-04-18T19:03:01.124Z,100237.19
2023-04-18T19:05:33.767Z,100234.66
2023-04-18T19:08:06.709Z,100235.59
2023-04-18T19:10:38.881Z,100236.20
2023-04-18T19:13:11.041Z,100236.55
2023-04-18T19:15:43.130Z,100231.80
2023-04-18T19:18:15.460Z,100237.80
2023-04-18T19:20:47.742Z,100235.92
2023-04-18T19:23:20.052Z,100232.08
2023-04-18T19:25:52.391Z,100233.02
2023-04-18T19:28:24.807Z,100232.45
2023-04-18T19:30:57.127Z,100233.58
2023-04-18T19:33:29.549Z,100228.84
2023-04-18T19:36:02.231Z,100231.34
2023-04-18T19:38:34.962Z,100230.41
2023-04-18T19:41:07.223Z,100228.50
2023-04-18T19:43:40.861Z,100226.10
2023-04-18T19:46:13.527Z,100226.83
2023-04-18T19:48:45.974Z,100224.31
2023-04-18T19:51:18.546Z,100225.52
2023-04-18T19:53:50.881Z,100221.77
2023-04-18T19:56:23.085Z,100222.27
2023-04-18T19:58:55.310Z,100218.47
2023-04-18T20:01:27.549Z,100221.25
2023-04-18T20:04:00.707Z,100223.16
2023-04-18T20:06:33.362Z,100221.77
2023-04-18T20:09:05.924Z,100222.76
2023-04-18T20:11:37.960Z,100224.51
2023-04-18T20:14:10.107Z,100226.66
2023-04-18T20:16:43.089Z,100219.64
2023-04-18T20:19:15.745Z,100215.98
2023-04-18T20:21:48.131Z,100214.24
2023-04-18T20:24:21.138Z,100210.79
2023-04-18T20:26:53.273Z,100211.86
2023-04-18T20:29:25.541Z,100208.86
2023-04-18T20:31:57.655Z,100210.26
2023-04-18T20:34:29.679Z,100207.33
2023-04-18T20:37:01.716Z,100205.21
2023-04-18T20:39:33.750Z,100209.64
2023-04-18T20:42:05.951Z,100209.63
2023-04-18T20:44:38.755Z,100207.69
2023-04-18T20:47:10.773Z,100205.06
2023-04-18T20:49:42.785Z,100203.48
2023-04-18T20:52:14.849Z,100203.48
2023-04-18T20:54:46.860Z,100196.94
2023-04-18T20:57:20.138Z,100198.74
2023-04-18T20:59:52.190Z,100195.89
2023-04-18T21:02:24.359Z,100192.77
2023-04-18T21:04:56.469Z,100195.35
2023-04-18T21:07:29.826Z,100189.56
2023-04-18T21:10:01.746Z,100189.35
2023-04-18T21:12:33.773Z,100187.20
2023-04-18T21:15:06.708Z,100187.39
2023-04-18T21:17:38.743Z,100184.80
2023-04-18T21:20:12.378Z,100182.94
2023-04-18T21:22:44.343Z,100180.39
2023-04-18T21:25:16.669Z,100175.98
2023-04-18T21:27:50.774Z,100171.05
2023-04-18T21:30:23.212Z,100171.23
2023-04-18T21:32:55.272Z,100172.37
2023-04-18T21:35:29.918Z,100170.41
2023-04-18T21:38:02.058Z,100169.52
2023-04-18T21:40:34.041Z,100164.31
2023-04-18T21:43:06.049Z,100165.79
2023-04-18T21:45:38.044Z,100163.90
2023-04-18T21:48:11.619Z,100161.52
2023-04-18T21:50:43.890Z,100162.11
2023-04-18T21:53:15.864Z,100157.92
2023-04-18T21:55:47.819Z,100155.68
2023-04-18T21:58:20.186Z,100153.23
2023-04-18T22:00:52.228Z,100151.64
2023-04-18T22:03:24.550Z,100146.21
2023-04-18T22:05:57.716Z,100147.54
2023-04-18T22:08:31.160Z,100143.48
2023-04-18T22:11:04.976Z,100143.87
2023-04-18T22:13:37.111Z,100140.11
2023-04-18T22:16:10.128Z,100136.69
2023-04-18T22:18:42.157Z,100135.89
2023-04-18T22:21:14.196Z,100134.00
2023-04-18T22:23:46.160Z,100131.81
2023-04-18T22:26:18.255Z,100128.46
2023-04-18T22:28:50.349Z,100121.11
2023-04-18T22:31:22.469Z,100119.32
2023-04-18T22:33:54.632Z,100121.81
2023-04-18T22:36:27.147Z,100119.12
2023-04-18T22:38:59.137Z,100113.16
2023-04-18T22:41:31.141Z,100111.25
2023-04-18T22:44:03.347Z,100109.71
2023-04-18T22:46:38.597Z,100104.36
2023-04-18T22:49:11.019Z,100105.72
2023-04-18T22:51:44.061Z,100101.59
2023-04-18T22:54:16.384Z,100100.66
2023-04-18T22:56:48.735Z,100098.09
2023-04-18T22:59:21.044Z,100093.08
2023-04-18T23:01:53.071Z,100095.39
2023-04-18T23:04:25.218Z,100089.86
2023-04-18T23:06:57.425Z,100088.39
2023-04-18T23:09:31.852Z,100085.11
2023-04-18T23:12:04.094Z,100084.21
2023-04-18T23:14:36.065Z,100079.20
2023-04-18T23:17:08.054Z,100076.73
2023-04-18T23:19:40.161Z,100074.01
2023-04-18T23:22:12.152Z,100065.45
2023-04-18T23:24:44.073Z,100066.58
2023-04-18T23:27:16.187Z,100063.39
2023-04-18T23:29:50.496Z,100058.39
2023-04-18T23:32:22.554Z,100055.46
2023-04-18T23:34:54.516Z,100049.09
2023-04-18T23:37:26.476Z,100047.88
2023-04-18T23:39:58.464Z,100044.60
2023-04-18T23:42:30.416Z,100041.33
2023-04-18T23:45:03.739Z,100041.98
2023-04-18T23:47:35.858Z,100036.41
2023-04-18T23:50:09.507Z,100032.25
2023-04-18T23:52:41.484Z,100028.41
2023-04-18T23:55:13.650Z,100028.20
2023-04-18T23:57:45.648Z,100022.11
